Time;durP1;ratioP1;P1;durP2;ratioP2;P2;SDS_P1;SDS_P2;PMS_P1;PMS_P2;Temp;Humidity;BMP_temperature;BMP_pressure;BME280_temperature;BME280_humidity;BME280_pressure;Samples;Min_cycle;Max_cycle;Signal;HPM_P1;HPM_P2
2021/08/26 00:05:51;;;;;;;2.58;2.03;;;14.00;99.90;;;;;;4158912;28;20033;-67
2021/08/26 00:07:56;;;;;;;4.07;2.10;;;14.00;99.90;;;;;;4160451;28;20092;-67
2021/08/26 00:09:57;;;;;;;7.80;2.03;;;14.00;99.90;;;;;;4159081;28;20076;-67
2021/08/26 00:11:58;;;;;;;4.18;1.88;;;14.00;99.90;;;;;;4160282;28;20037;-67
2021/08/26 00:13:59;;;;;;;3.30;2.33;;;14.00;99.90;;;;;;4143512;28;20560;-67
2021/08/26 00:16:00;;;;;;;2.50;2.10;;;14.00;99.90;;;;;;4143610;28;20501;-67
2021/08/26 00:18:03;;;;;;;3.47;2.55;;;14.10;99.90;;;;;;4143577;28;20041;-69
2021/08/26 00:20:05;;;;;;;2.90;2.25;;;14.10;99.90;;;;;;4143293;28;20080;-66
2021/08/26 00:22:06;;;;;;;2.33;1.75;;;14.10;99.90;;;;;;4143442;28;20840;-66
2021/08/26 00:24:08;;;;;;;6.30;2.17;;;14.00;99.90;;;;;;4142632;28;20088;-67
2021/08/26 00:26:11;;;;;;;2.40;1.90;;;14.00;99.90;;;;;;4143853;28;20433;-67
2021/08/26 00:28:12;;;;;;;2.55;1.90;;;14.00;99.90;;;;;;4142212;28;20100;-67
2021/08/26 00:30:14;;;;;;;3.88;2.30;;;14.00;99.90;;;;;;4143560;28;20042;-67
2021/08/26 00:32:16;;;;;;;4.35;2.05;;;14.00;99.90;;;;;;4140935;28;20462;-67
2021/08/26 00:34:17;;;;;;;3.13;1.90;;;14.00;99.90;;;;;;4144755;28;20045;-66
2021/08/26 00:36:18;;;;;;;4.78;2.40;;;14.00;99.90;;;;;;4142005;28;20576;-67
2021/08/26 00:38:21;;;;;;;7.20;2.30;;;14.00;99.90;;;;;;4143465;28;20077;-67
2021/08/26 00:40:22;;;;;;;8.98;2.17;;;14.00;99.90;;;;;;4142283;28;20034;-67
2021/08/26 00:42:25;;;;;;;3.47;1.90;;;14.00;99.90;;;;;;4143462;28;20080;-67
2021/08/26 00:44:26;;;;;;;3.47;2.38;;;14.00;99.90;;;;;;4156723;28;20488;-68
2021/08/26 00:46:27;;;;;;;5.90;2.30;;;14.00;99.90;;;;;;4152760;28;20045;-67
2021/08/26 00:48:29;;;;;;;3.10;2.70;;;14.00;99.90;;;;;;4158804;28;20049;-67
2021/08/26 00:50:30;;;;;;;5.13;2.40;;;14.00;99.90;;;;;;4159073;28;20033;-68
2021/08/26 00:52:36;;;;;;;3.43;2.70;;;13.90;99.90;;;;;;4158722;28;20083;-67
2021/08/26 00:54:37;;;;;;;4.33;2.33;;;13.90;99.90;;;;;;4157249;28;20071;-67
2021/08/26 00:56:39;;;;;;;4.47;2.83;;;13.80;99.90;;;;;;4159045;28;20441;-66
2021/08/26 00:58:48;;;;;;;4.73;2.93;;;13.80;99.90;;;;;;4158400;28;20722;-67
2021/08/26 01:00:52;;;;;;;4.50;2.33;;;13.80;99.90;;;;;;4159232;28;20034;-67
2021/08/26 01:03:08;;;;;;;3.08;2.60;;;13.80;99.90;;;;;;4158439;28;20100;-66
2021/08/26 01:05:28;;;;;;;4.03;2.83;;;13.70;99.90;;;;;;4159333;28;20030;-67
2021/08/26 01:07:36;;;;;;;4.68;2.85;;;13.70;99.90;;;;;;4158304;28;20029;-66
2021/08/26 01:09:46;;;;;;;2.53;2.20;;;13.80;99.90;;;;;;4159090;28;20835;-66
2021/08/26 01:11:49;;;;;;;3.45;2.60;;;13.80;99.90;;;;;;4158388;28;20402;-67
2021/08/26 01:13:52;;;;;;;5.37;2.73;;;13.80;99.90;;;;;;4159082;28;20115;-67
2021/08/26 01:16:06;;;;;;;6.70;3.30;;;13.70;99.90;;;;;;4173094;28;20066;-67
2021/08/26 01:18:07;;;;;;;3.37;3.07;;;13.70;99.90;;;;;;4158406;28;20107;-67
2021/08/26 01:20:08;;;;;;;4.30;3.10;;;13.60;99.90;;;;;;4158235;28;20784;-67
2021/08/26 01:22:10;;;;;;;6.70;3.17;;;13.60;99.90;;;;;;4159537;28;20079;-68
2021/08/26 01:24:16;;;;;;;6.40;3.23;;;13.60;99.90;;;;;;4149270;28;20037;-66
2021/08/26 01:26:22;;;;;;;4.70;3.00;;;13.60;99.90;;;;;;4142646;28;20818;-67
2021/08/26 01:28:24;;;;;;;8.67;3.27;;;13.50;99.90;;;;;;4141423;28;20505;-67
2021/08/26 01:30:27;;;;;;;5.70;2.50;;;13.50;99.90;;;;;;4142630;28;20026;-67
2021/08/26 01:32:29;;;;;;;8.43;3.17;;;13.50;99.90;;;;;;4141607;28;20033;-67
2021/08/26 01:34:31;;;;;;;4.93;2.60;;;13.50;99.90;;;;;;4148709;28;20115;-67
2021/08/26 01:36:33;;;;;;;5.33;2.40;;;13.50;99.90;;;;;;4158352;28;20088;-66
2021/08/26 01:38:34;;;;;;;7.40;2.90;;;13.50;99.90;;;;;;4159046;28;20041;-67
2021/08/26 01:40:40;;;;;;;4.30;3.13;;;13.40;99.90;;;;;;4157530;28;20083;-67
2021/08/26 01:42:42;;;;;;;5.10;3.40;;;13.40;99.90;;;;;;4158655;28;20041;-67
2021/08/26 01:44:43;;;;;;;4.50;2.60;;;13.40;99.90;;;;;;4157771;28;20119;-67
2021/08/26 01:46:44;;;;;;;4.30;3.27;;;13.30;99.90;;;;;;4158524;28;20477;-67
2021/08/26 01:48:46;;;;;;;6.67;2.80;;;13.30;99.90;;;;;;4156580;28;20110;-68
2021/08/26 01:50:49;;;;;;;5.80;3.20;;;13.30;99.90;;;;;;4157884;28;20034;-67
2021/08/26 01:52:50;;;;;;;5.47;3.10;;;13.20;99.90;;;;;;4158365;28;20440;-66
2021/08/26 01:54:53;;;;;;;6.83;3.23;;;13.20;99.90;;;;;;4157526;28;20041;-67
2021/08/26 01:56:55;;;;;;;4.47;3.10;;;13.20;99.90;;;;;;4158667;28;20029;-68
2021/08/26 01:58:56;;;;;;;7.27;2.50;;;13.10;99.90;;;;;;4139552;28;20502;-66
2021/08/26 02:00:57;;;;;;;3.40;3.10;;;13.10;99.90;;;;;;4158285;28;20075;-68
2021/08/26 02:02:58;;;;;;;4.40;2.97;;;13.10;99.90;;;;;;4156629;28;20525;-67
2021/08/26 02:04:59;;;;;;;5.57;2.67;;;13.10;99.90;;;;;;4156602;28;20045;-69
2021/08/26 02:07:00;;;;;;;4.23;2.80;;;13.00;99.90;;;;;;4157107;28;20029;-68
2021/08/26 02:09:02;;;;;;;7.70;3.47;;;13.00;99.90;;;;;;4158108;28;20037;-67
2021/08/26 02:11:03;;;;;;;3.33;2.90;;;13.00;99.90;;;;;;4156942;28;20464;-67
2021/08/26 02:13:04;;;;;;;3.30;2.90;;;13.00;99.90;;;;;;4158008;28;20103;-67
2021/08/26 02:15:06;;;;;;;6.90;2.93;;;13.00;99.90;;;;;;4141223;28;20088;-66
2021/08/26 02:17:07;;;;;;;3.40;2.67;;;12.90;99.90;;;;;;4141555;28;20076;-67
2021/08/26 02:19:09;;;;;;;6.93;3.07;;;13.00;99.90;;;;;;4140680;28;20030;-67
2021/08/26 02:21:10;;;;;;;6.13;2.20;;;13.00;99.90;;;;;;4156439;28;20042;-68
2021/08/26 02:23:11;;;;;;;3.50;2.80;;;13.00;99.90;;;;;;4156204;28;20080;-66
2021/08/26 02:25:12;;;;;;;4.57;3.00;;;13.00;99.90;;;;;;4140674;28;20124;-68
2021/08/26 02:27:14;;;;;;;6.87;2.53;;;13.00;99.90;;;;;;4142057;28;20115;-69
2021/08/26 02:29:15;;;;;;;3.00;2.50;;;13.00;99.90;;;;;;4140701;28;20100;-67
2021/08/26 02:31:16;;;;;;;4.27;2.17;;;13.00;99.90;;;;;;4156330;28;20041;-67
2021/08/26 02:33:17;;;;;;;3.67;2.03;;;13.00;99.90;;;;;;4140240;28;20082;-66
2021/08/26 02:35:18;;;;;;;3.13;2.83;;;13.00;99.90;;;;;;4158155;28;20041;-69
2021/08/26 02:37:19;;;;;;;7.63;2.20;;;13.00;99.90;;;;;;4156623;28;20030;-68
2021/08/26 02:39:21;;;;;;;5.30;2.20;;;12.90;99.90;;;;;;4157792;28;20068;-67
2021/08/26 02:41:22;;;;;;;3.10;2.33;;;12.90;99.90;;;;;;4154027;28;20041;-66
2021/08/26 02:43:23;;;;;;;7.47;2.30;;;12.90;99.90;;;;;;4141440;28;20033;-67
2021/08/26 02:45:24;;;;;;;5.23;2.70;;;12.90;99.90;;;;;;4140560;28;20100;-68
2021/08/26 02:47:25;;;;;;;4.43;2.40;;;12.90;99.90;;;;;;4141192;28;20034;-67
2021/08/26 02:49:26;;;;;;;2.93;1.90;;;12.90;99.90;;;;;;4140920;28;20095;-69
2021/08/26 02:51:27;;;;;;;5.30;2.27;;;12.90;99.90;;;;;;4141180;28;20089;-67
2021/08/26 02:53:29;;;;;;;3.87;2.07;;;12.90;99.90;;;;;;4141203;28;20061;-67
2021/08/26 02:55:30;;;;;;;5.23;2.30;;;12.80;99.90;;;;;;4140266;28;20022;-68
2021/08/26 02:57:31;;;;;;;4.30;2.40;;;12.80;99.90;;;;;;4141587;28;20037;-66
2021/08/26 02:59:33;;;;;;;3.77;2.50;;;12.80;99.90;;;;;;4140660;28;20041;-67
2021/08/26 03:01:34;;;;;;;7.87;3.57;;;12.80;99.90;;;;;;4141668;28;20030;-67
2021/08/26 03:03:35;;;;;;;3.70;2.50;;;12.80;99.90;;;;;;4144882;28;20079;-67
2021/08/26 03:05:36;;;;;;;4.13;2.73;;;12.70;99.90;;;;;;4157426;28;20033;-68
2021/08/26 03:07:38;;;;;;;7.17;2.70;;;12.70;99.90;;;;;;4171363;28;20539;-68
2021/08/26 03:09:39;;;;;;;3.97;2.90;;;12.70;99.90;;;;;;4157629;28;20493;-67
2021/08/26 03:11:40;;;;;;;5.53;3.00;;;12.70;99.90;;;;;;4156204;28;20099;-67
2021/08/26 03:13:41;;;;;;;7.30;2.93;;;12.60;99.90;;;;;;4157700;28;20123;-67
2021/08/26 03:15:42;;;;;;;4.23;2.40;;;12.60;99.90;;;;;;4156292;28;20034;-67
2021/08/26 03:17:43;;;;;;;7.30;2.60;;;12.50;99.90;;;;;;4157640;28;20556;-67
2021/08/26 03:19:45;;;;;;;6.37;2.87;;;12.50;99.90;;;;;;4156745;28;20436;-67
2021/08/26 03:21:46;;;;;;;4.93;2.50;;;12.50;99.90;;;;;;4157105;28;20037;-67
2021/08/26 03:23:47;;;;;;;4.00;2.43;;;12.40;99.90;;;;;;4156460;28;20539;-66
2021/08/26 03:25:48;;;;;;;4.87;2.40;;;12.40;99.90;;;;;;4156608;28;20492;-66
2021/08/26 03:27:49;;;;;;;4.80;2.40;;;12.40;99.90;;;;;;4155435;28;20033;-67
2021/08/26 03:29:50;;;;;;;4.10;2.37;;;12.40;99.90;;;;;;4170805;28;20856;-67
2021/08/26 03:31:51;;;;;;;3.50;2.80;;;12.40;99.90;;;;;;4142435;28;20042;-67
2021/08/26 03:33:52;;;;;;;6.63;2.50;;;12.40;99.90;;;;;;4139820;28;20076;-67
2021/08/26 03:35:53;;;;;;;7.20;2.37;;;12.40;99.90;;;;;;4141019;28;20034;-67
2021/08/26 03:37:55;;;;;;;4.43;2.40;;;12.40;99.90;;;;;;4139546;28;20502;-67
2021/08/26 03:39:56;;;;;;;4.77;2.83;;;12.40;99.90;;;;;;4141059;28;20088;-68
2021/08/26 03:41:57;;;;;;;5.87;2.57;;;12.40;99.90;;;;;;4139839;28;20088;-67
2021/08/26 03:43:58;;;;;;;4.33;2.47;;;12.40;99.90;;;;;;4141985;28;20041;-66
2021/08/26 03:45:59;;;;;;;6.47;3.10;;;12.40;99.90;;;;;;4154373;28;20472;-67
2021/08/26 03:48:00;;;;;;;6.20;3.90;;;12.40;99.90;;;;;;4140655;28;20096;-68
2021/08/26 03:50:01;;;;;;;8.03;3.53;;;12.40;99.90;;;;;;4140086;28;20096;-67
2021/08/26 03:52:04;;;;;;;5.30;3.57;;;12.40;99.90;;;;;;4140151;28;20042;-66
2021/08/26 03:54:05;;;;;;;7.77;3.63;;;12.40;99.90;;;;;;4141293;28;20096;-68
2021/08/26 03:56:06;;;;;;;7.80;3.70;;;12.40;99.90;;;;;;4139948;28;20089;-67
2021/08/26 03:58:07;;;;;;;8.50;3.67;;;12.40;99.90;;;;;;4140164;28;20104;-66
2021/08/26 04:00:09;;;;;;;7.93;2.90;;;12.40;99.90;;;;;;4140442;28;20042;-67
2021/08/26 04:02:10;;;;;;;5.67;3.97;;;12.40;99.90;;;;;;4145764;28;20030;-67
2021/08/26 04:04:11;;;;;;;10.13;4.07;;;12.50;99.90;;;;;;4155431;28;20084;-67
2021/08/26 04:06:13;;;;;;;7.23;3.50;;;12.50;99.90;;;;;;4156828;28;20478;-68
2021/08/26 04:08:14;;;;;;;6.20;4.00;;;12.50;99.90;;;;;;4153445;28;20041;-67
2021/08/26 04:10:15;;;;;;;7.50;3.27;;;12.60;99.90;;;;;;4141681;28;20107;-66
2021/08/26 04:12:16;;;;;;;4.97;3.00;;;12.60;99.90;;;;;;4149827;28;20050;-67
2021/08/26 04:14:17;;;;;;;9.90;2.50;;;12.60;99.90;;;;;;4150850;28;20547;-67
2021/08/26 04:16:18;;;;;;;6.73;2.70;;;12.70;99.90;;;;;;4156126;28;20037;-67
2021/08/26 04:18:19;;;;;;;4.10;1.90;;;12.80;99.90;;;;;;4156467;28;20078;-67
2021/08/26 04:20:21;;;;;;;4.53;2.20;;;13.10;99.90;;;;;;4156163;28;20531;-67
2021/08/26 04:22:22;;;;;;;8.03;2.03;;;13.30;99.90;;;;;;4156389;28;20087;-67
2021/08/26 04:24:23;;;;;;;4.13;1.77;;;13.40;99.90;;;;;;4156363;28;20079;-67
2021/08/26 04:26:24;;;;;;;3.13;1.60;;;13.80;99.90;;;;;;4156322;28;20029;-67
2021/08/26 04:28:25;;;;;;;6.97;2.20;;;14.10;99.90;;;;;;4159486;28;20080;-68
2021/08/26 04:30:27;;;;;;;4.30;2.17;;;14.30;99.90;;;;;;4173600;28;20036;-69
2021/08/26 04:32:28;;;;;;;8.10;2.78;;;14.30;99.90;;;;;;4159740;28;20095;-67
2021/08/26 04:34:29;;;;;;;6.67;2.60;;;14.40;99.90;;;;;;4158276;28;20025;-68
2021/08/26 04:36:30;;;;;;;8.90;2.15;;;14.60;99.90;;;;;;4159728;28;20037;-69
2021/08/26 04:38:32;;;;;;;6.50;1.80;;;14.90;99.90;;;;;;4158608;28;20046;-68
2021/08/26 04:40:33;;;;;;;3.65;2.15;;;15.40;99.90;;;;;;4159635;28;20029;-66
2021/08/26 04:42:34;;;;;;;7.80;2.08;;;15.90;99.90;;;;;;4158028;28;20067;-67
2021/08/26 04:44:35;;;;;;;11.38;1.90;;;16.10;99.90;;;;;;4144629;28;20042;-66
2021/08/26 04:46:36;;;;;;;6.75;1.75;;;16.70;99.90;;;;;;4142595;28;20026;-67
2021/08/26 04:48:37;;;;;;;2.65;1.80;;;17.00;99.90;;;;;;4143064;28;20041;-66
2021/08/26 04:50:38;;;;;;;6.55;1.40;;;17.60;99.90;;;;;;4142663;28;20088;-67
2021/08/26 04:52:41;;;;;;;5.88;1.52;;;18.20;99.90;;;;;;4158144;28;20044;-67
2021/08/26 04:54:42;;;;;;;1.83;1.02;;;18.80;99.90;;;;;;4153028;28;20030;-63
2021/08/26 04:56:43;;;;;;;3.53;1.08;;;19.20;99.90;;;;;;4157748;28;20033;-68
2021/08/26 04:58:44;;;;;;;2.05;1.30;;;19.70;99.90;;;;;;4174316;28;20504;-68
2021/08/26 05:00:45;;;;;;;4.15;1.10;;;20.00;99.90;;;;;;4157920;28;20568;-66
2021/08/26 05:02:46;;;;;;;3.63;1.20;;;19.80;99.90;;;;;;4159118;28;20095;-67
2021/08/26 05:04:47;;;;;;;1.92;0.90;;;19.60;99.90;;;;;;4158198;28;20087;-67
2021/08/26 05:06:49;;;;;;;2.47;1.98;;;19.40;99.90;;;;;;4159257;28;20030;-67
2021/08/26 05:08:50;;;;;;;5.22;1.60;;;19.50;99.90;;;;;;4157645;28;20562;-68
2021/08/26 05:10:52;;;;;;;8.23;2.33;;;19.60;99.90;;;;;;4132113;28;20038;-67
2021/08/26 05:12:53;;;;;;;5.00;1.40;;;19.60;99.90;;;;;;4150554;28;20041;-68
2021/08/26 05:14:54;;;;;;;6.10;1.23;;;19.80;99.90;;;;;;4157327;28;20211;-66
2021/08/26 05:16:58;;;;;;;3.13;1.60;;;20.10;99.90;;;;;;4156027;28;20598;-65
2021/08/26 05:18:59;;;;;;;2.35;1.20;;;20.50;99.90;;;;;;4156066;28;20049;-66
2021/08/26 05:21:00;;;;;;;8.30;1.83;;;20.90;99.90;;;;;;4141263;28;20034;-66
2021/08/26 05:23:01;;;;;;;2.95;1.10;;;21.30;99.90;;;;;;4142676;28;20112;-67
2021/08/26 05:25:02;;;;;;;5.75;1.33;;;21.20;99.90;;;;;;4141636;28;20022;-67
2021/08/26 05:27:03;;;;;;;1.65;1.10;;;20.90;99.90;;;;;;4141187;28;20540;-69
2021/08/26 05:29:04;;;;;;;3.42;1.30;;;20.70;99.90;;;;;;4142302;28;20616;-65
2021/08/26 05:31:05;;;;;;;2.75;1.13;;;20.70;99.90;;;;;;4140866;28;20034;-71
2021/08/26 05:33:07;;;;;;;3.70;1.27;;;20.70;99.90;;;;;;4143404;28;20033;-67
2021/08/26 05:35:08;;;;;;;5.13;1.17;;;20.80;99.90;;;;;;4140715;28;20092;-67
2021/08/26 05:37:10;;;;;;;3.47;1.50;;;21.00;99.90;;;;;;4140671;28;20038;-66
2021/08/26 05:39:11;;;;;;;7.93;2.58;;;21.10;99.90;;;;;;4140121;28;20038;-68
2021/08/26 05:41:12;;;;;;;6.38;3.20;;;21.40;99.60;;;;;;4142073;28;20413;-66
2021/08/26 05:43:13;;;;;;;1.80;1.30;;;21.70;99.00;;;;;;4139962;28;20449;-67
2021/08/26 05:45:14;;;;;;;7.47;2.30;;;21.90;98.60;;;;;;4142549;28;20095;-66
2021/08/26 05:47:15;;;;;;;3.08;1.42;;;22.20;98.00;;;;;;4141077;28;20770;-66
2021/08/26 05:49:16;;;;;;;3.03;1.00;;;22.30;97.50;;;;;;4141813;28;20038;-67
2021/08/26 05:51:18;;;;;;;2.67;1.17;;;22.40;97.20;;;;;;4140889;28;20049;-67
2021/08/26 05:53:19;;;;;;;5.82;1.10;;;22.50;96.80;;;;;;4141527;28;20034;-68
2021/08/26 05:55:20;;;;;;;1.85;1.02;;;22.50;96.50;;;;;;4141057;28;20046;-68
2021/08/26 05:57:21;;;;;;;8.05;1.10;;;22.90;95.90;;;;;;4140471;28;20098;-67
2021/08/26 05:59:22;;;;;;;3.35;1.33;;;22.90;95.60;;;;;;4141391;28;20100;-68
2021/08/26 06:03:34;;;;;;;4.90;1.40;;;23.90;94.60;;;;;;4160475;23;19976;-67
2021/08/26 06:05:35;;;;;;;3.70;1.00;;;24.50;93.70;;;;;;4124272;28;20618;-67
2021/08/26 06:07:38;;;;;;;5.90;1.50;;;24.60;93.10;;;;;;4125544;28;20026;-67
2021/08/26 06:09:40;;;;;;;2.65;1.38;;;24.60;92.70;;;;;;4123949;28;20034;-67
2021/08/26 06:11:42;;;;;;;4.40;1.42;;;24.60;92.40;;;;;;4125735;28;20455;-67
2021/08/26 06:13:44;;;;;;;2.63;1.27;;;24.30;92.70;;;;;;4124062;28;20540;-69
2021/08/26 06:15:45;;;;;;;6.38;1.13;;;24.20;92.70;;;;;;4125458;28;20042;-67
2021/08/26 06:17:46;;;;;;;4.32;1.60;;;24.10;92.50;;;;;;4123634;28;20475;-68
2021/08/26 06:19:47;;;;;;;2.97;1.50;;;23.90;92.30;;;;;;4124922;28;20031;-66
2021/08/26 06:21:48;;;;;;;2.95;1.30;;;24.20;92.10;;;;;;4124318;28;20073;-67
2021/08/26 06:23:49;;;;;;;2.58;1.20;;;24.40;91.70;;;;;;4124625;28;20050;-68
2021/08/26 06:25:51;;;;;;;4.72;1.40;;;24.10;91.60;;;;;;4124232;28;20088;-67
2021/08/26 06:27:56;;;;;;;2.83;1.25;;;24.20;91.60;;;;;;4122190;28;20088;-67
2021/08/26 06:29:57;;;;;;;2.30;1.55;;;24.40;91.30;;;;;;4124508;28;20556;-67
2021/08/26 06:31:58;;;;;;;1.58;1.27;;;24.30;91.00;;;;;;4124036;28;20030;-67
2021/08/26 06:33:59;;;;;;;2.97;1.52;;;24.30;90.90;;;;;;4125230;28;20089;-67
2021/08/26 06:36:00;;;;;;;2.83;1.42;;;24.40;90.70;;;;;;4137750;28;20120;-67
2021/08/26 06:38:02;;;;;;;4.60;1.80;;;24.30;90.60;;;;;;4124817;28;20124;-67
2021/08/26 06:40:03;;;;;;;3.17;1.77;;;24.70;90.40;;;;;;4123725;28;20080;-67
2021/08/26 06:42:04;;;;;;;4.80;1.55;;;25.20;89.80;;;;;;4124884;28;20038;-67
2021/08/26 06:44:06;;;;;;;5.68;1.55;;;25.10;89.30;;;;;;4124084;28;20537;-66
2021/08/26 06:46:07;;;;;;;3.17;1.20;;;24.30;90.10;;;;;;4125419;28;20043;-66
2021/08/26 06:48:08;;;;;;;4.15;1.75;;;23.60;90.70;;;;;;4123392;28;20038;-67
2021/08/26 06:50:09;;;;;;;6.35;1.77;;;23.00;91.40;;;;;;4124430;28;20050;-67
2021/08/26 06:52:10;;;;;;;2.22;1.70;;;22.30;92.10;;;;;;4123696;28;20321;-67
2021/08/26 06:54:12;;;;;;;9.32;2.33;;;22.10;92.50;;;;;;4124657;28;20042;-68
2021/08/26 06:56:13;;;;;;;3.65;1.95;;;22.20;92.50;;;;;;4124368;28;20104;-68
2021/08/26 06:58:14;;;;;;;6.10;2.10;;;22.00;92.50;;;;;;4124441;28;20125;-68
2021/08/26 07:00:15;;;;;;;4.65;1.65;;;21.80;92.50;;;;;;4124840;28;20034;-68
2021/08/26 07:02:17;;;;;;;2.05;1.60;;;21.50;92.90;;;;;;4123220;28;20088;-68
2021/08/26 07:04:18;;;;;;;6.30;2.30;;;21.50;93.10;;;;;;4124957;28;20592;-68
2021/08/26 07:06:19;;;;;;;9.18;2.47;;;21.20;93.50;;;;;;4123294;28;20096;-68
2021/08/26 07:08:20;;;;;;;9.75;2.80;;;20.80;93.90;;;;;;4124536;28;20045;-68
2021/08/26 07:10:21;;;;;;;5.65;2.53;;;20.80;94.10;;;;;;4122542;28;20493;-67
2021/08/26 07:12:22;;;;;;;10.40;3.10;;;21.00;93.90;;;;;;4124289;28;20053;-68
2021/08/26 07:14:23;;;;;;;8.73;2.35;;;20.80;93.80;;;;;;4122878;28;20433;-68
2021/08/26 07:16:24;;;;;;;2.65;1.75;;;20.50;93.90;;;;;;4124871;28;20085;-68
2021/08/26 07:18:25;;;;;;;3.63;1.73;;;20.30;94.00;;;;;;4123383;28;20085;-68
2021/08/26 07:20:27;;;;;;;3.47;1.73;;;20.10;93.70;;;;;;4124548;28;20088;-68
2021/08/26 07:22:28;;;;;;;3.90;1.63;;;20.30;93.30;;;;;;4123212;28;20529;-67
2021/08/26 07:24:29;;;;;;;4.20;1.67;;;20.30;92.50;;;;;;4123842;28;20188;-68
2021/08/26 07:26:30;;;;;;;5.70;2.00;;;20.90;92.30;;;;;;4123860;28;20030;-68
2021/08/26 07:28:31;;;;;;;3.08;1.95;;;21.00;91.90;;;;;;4123747;28;20430;-68
2021/08/26 07:30:33;;;;;;;3.45;1.70;;;21.00;92.00;;;;;;4123557;28;20112;-68
2021/08/26 07:32:34;;;;;;;3.25;1.40;;;21.20;91.90;;;;;;4123620;28;20081;-68
2021/08/26 07:34:35;;;;;;;3.63;1.30;;;21.90;91.40;;;;;;4124223;28;20576;-68
2021/08/26 07:36:36;;;;;;;3.67;1.20;;;21.90;90.60;;;;;;4122902;28;20026;-68
2021/08/26 07:38:37;;;;;;;3.50;1.17;;;21.70;90.20;;;;;;4124749;28;20031;-68
2021/08/26 07:40:38;;;;;;;3.53;1.60;;;21.60;90.00;;;;;;4122976;28;20034;-68
2021/08/26 07:42:40;;;;;;;3.85;1.75;;;21.40;90.00;;;;;;4124136;28;20035;-68
2021/08/26 07:44:41;;;;;;;5.10;1.48;;;21.30;90.20;;;;;;4123317;28;20038;-68
2021/08/26 07:46:42;;;;;;;3.67;1.45;;;21.20;90.50;;;;;;4124811;28;20027;-68
2021/08/26 07:48:43;;;;;;;6.35;1.73;;;21.00;90.60;;;;;;4123067;28;20442;-67
2021/08/26 07:50:45;;;;;;;2.42;1.35;;;21.00;90.90;;;;;;4124165;28;20105;-67
2021/08/26 07:52:46;;;;;;;3.95;2.33;;;21.10;90.90;;;;;;4122684;28;20264;-68
2021/08/26 07:54:47;;;;;;;2.83;1.70;;;21.20;90.80;;;;;;4124148;28;20538;-67
2021/08/26 07:56:49;;;;;;;2.95;1.65;;;21.30;90.60;;;;;;4122737;28;20038;-67
2021/08/26 07:58:50;;;;;;;3.10;1.30;;;21.20;90.00;;;;;;4123312;28;20096;-67
2021/08/26 08:00:51;;;;;;;5.63;1.40;;;21.20;90.30;;;;;;4123735;28;20426;-67
2021/08/26 08:02:52;;;;;;;4.53;1.50;;;20.90;90.80;;;;;;4126326;28;20572;-67
2021/08/26 08:04:53;;;;;;;3.15;1.60;;;20.80;91.30;;;;;;4125692;28;20038;-67
2021/08/26 08:06:54;;;;;;;6.72;1.35;;;20.70;91.50;;;;;;4123478;28;20067;-67
2021/08/26 08:08:56;;;;;;;3.42;2.13;;;20.70;91.60;;;;;;4125961;28;20089;-67
2021/08/26 08:10:57;;;;;;;3.72;1.38;;;21.00;91.80;;;;;;4139159;28;20525;-67
2021/08/26 08:12:58;;;;;;;5.88;2.13;;;21.40;91.40;;;;;;4126166;28;20030;-67
2021/08/26 08:14:59;;;;;;;3.38;1.60;;;21.50;91.10;;;;;;4124647;28;20549;-67
2021/08/26 08:17:01;;;;;;;2.60;1.65;;;21.60;91.10;;;;;;4125636;28;20498;-67
2021/08/26 08:19:03;;;;;;;2.85;1.77;;;21.20;91.20;;;;;;4122548;28;20572;-67
2021/08/26 08:21:04;;;;;;;3.28;1.98;;;20.80;92.10;;;;;;4125185;28;20490;-67
2021/08/26 08:23:06;;;;;;;2.72;1.90;;;20.60;92.70;;;;;;4124453;28;20046;-67
2021/08/26 08:25:08;;;;;;;4.35;2.17;;;20.70;92.90;;;;;;4126003;28;20038;-67
2021/08/26 08:27:09;;;;;;;3.28;2.30;;;20.80;92.90;;;;;;4124845;28;20085;-67
2021/08/26 08:29:10;;;;;;;4.63;1.85;;;20.80;93.10;;;;;;4126092;28;20034;-67
2021/08/26 08:31:11;;;;;;;5.07;2.20;;;20.90;93.00;;;;;;4124135;28;20486;-67
2021/08/26 08:33:12;;;;;;;5.38;1.73;;;20.80;93.20;;;;;;4125436;28;20543;-67
2021/08/26 08:35:13;;;;;;;3.78;1.95;;;20.60;92.90;;;;;;4125196;28;20030;-67
2021/08/26 08:37:14;;;;;;;2.35;1.90;;;20.50;92.90;;;;;;4124661;28;20042;-67
2021/08/26 08:39:17;;;;;;;6.60;1.98;;;20.70;92.90;;;;;;4125014;28;20054;-68
2021/08/26 08:41:19;;;;;;;3.08;1.73;;;20.90;92.90;;;;;;4124695;28;20092;-68
2021/08/26 08:43:20;;;;;;;3.38;1.83;;;21.00;92.50;;;;;;4125696;28;20486;-68
2021/08/26 08:45:21;;;;;;;6.57;2.22;;;21.10;92.40;;;;;;4124424;28;20054;-67
2021/08/26 08:47:23;;;;;;;4.05;1.73;;;21.10;92.30;;;;;;4125111;28;20034;-68
2021/08/26 08:49:26;;;;;;;2.67;1.73;;;21.10;92.10;;;;;;4124002;28;20477;-67
2021/08/26 08:51:29;;;;;;;2.28;1.42;;;21.00;92.10;;;;;;4125200;28;20094;-68
2021/08/26 08:53:31;;;;;;;2.88;1.60;;;21.00;92.00;;;;;;4123961;28;20030;-68
2021/08/26 08:55:32;;;;;;;3.40;1.55;;;21.00;92.00;;;;;;4125384;28;20042;-68
2021/08/26 08:57:36;;;;;;;4.10;1.45;;;21.00;91.90;;;;;;4124014;28;20066;-68
2021/08/26 08:59:37;;;;;;;2.58;1.60;;;21.00;91.70;;;;;;4125132;28;20137;-68
2021/08/26 09:01:38;;;;;;;4.65;1.67;;;21.00;91.30;;;;;;4123947;28;20030;-68
2021/08/26 09:03:39;;;;;;;3.65;2.10;;;21.00;91.60;;;;;;4125072;28;20054;-68
2021/08/26 09:05:53;;;;;;;2.28;1.70;;;20.90;91.70;;;;;;4124251;28;20061;-68
2021/08/26 09:08:08;;;;;;;2.22;1.42;;;20.90;91.50;;;;;;4124568;28;20034;-68
2021/08/26 09:10:10;;;;;;;2.67;1.67;;;20.80;91.40;;;;;;4123354;28;20104;-68
2021/08/26 09:12:11;;;;;;;2.55;1.40;;;21.00;92.00;;;;;;4124852;28;20089;-67
2021/08/26 09:14:14;;;;;;;2.42;1.10;;;21.10;91.70;;;;;;4124343;28;20550;-68
2021/08/26 09:16:15;;;;;;;1.65;1.55;;;21.10;91.50;;;;;;4124204;28;20046;-68
2021/08/26 09:18:18;;;;;;;5.15;1.88;;;21.20;91.80;;;;;;4124130;28;20034;-68
2021/08/26 09:20:20;;;;;;;2.15;1.55;;;21.30;92.10;;;;;;4123677;28;20063;-68
2021/08/26 09:22:23;;;;;;;2.30;1.48;;;21.40;91.80;;;;;;4124518;28;20435;-68
2021/08/26 09:24:52;;;;;;;3.40;1.90;;;21.30;91.60;;;;;;4124004;28;20042;-67
2021/08/26 09:26:53;;;;;;;4.05;1.63;;;21.40;91.60;;;;;;4138558;28;20041;-67
2021/08/26 09:29:00;;;;;;;4.80;1.65;;;21.40;91.50;;;;;;4123723;28;20042;-67
2021/08/26 09:31:15;;;;;;;4.22;2.38;;;21.20;91.40;;;;;;4124454;28;20050;-68
2021/08/26 09:33:16;;;;;;;2.97;1.45;;;21.10;91.50;;;;;;4123681;28;20076;-67
2021/08/26 09:35:17;;;;;;;3.42;2.10;;;21.00;91.80;;;;;;4124549;28;20046;-68
2021/08/26 09:37:18;;;;;;;2.03;1.60;;;20.80;92.10;;;;;;4123965;28;20383;-68
2021/08/26 09:39:24;;;;;;;3.00;1.30;;;20.90;92.10;;;;;;4125052;28;20089;-68
2021/08/26 09:41:37;;;;;;;3.08;1.58;;;21.10;91.80;;;;;;4123189;28;20092;-69
2021/08/26 09:43:38;;;;;;;3.10;1.70;;;21.30;91.90;;;;;;4124865;28;20030;-69
2021/08/26 09:45:46;;;;;;;3.03;1.98;;;21.30;91.80;;;;;;4123038;28;20054;-68
2021/08/26 09:48:04;;;;;;;2.30;1.55;;;21.10;91.60;;;;;;4124464;28;20725;-68
2021/08/26 09:50:05;;;;;;;2.28;1.38;;;21.10;91.60;;;;;;4123177;28;20120;-68
2021/08/26 09:52:17;;;;;;;4.35;1.50;;;21.40;91.80;;;;;;4124471;28;20078;-68
2021/08/26 09:54:54;;;;;;;3.70;1.60;;;21.40;91.80;;;;;;4123446;28;20502;-66
2021/08/26 09:56:55;;;;;;;1.63;1.40;;;21.50;90.80;;;;;;4125804;28;20072;-67
2021/08/26 09:58:57;;;;;;;4.75;1.70;;;21.60;91.30;;;;;;4123300;28;20042;-67
2021/08/26 10:01:20;;;;;;;3.05;1.98;;;21.70;91.10;;;;;;4124503;28;20026;-67
2021/08/26 10:03:31;;;;;;;6.05;1.40;;;21.70;90.70;;;;;;4122860;28;20497;-67
2021/08/26 10:05:33;;;;;;;2.58;1.60;;;21.50;90.30;;;;;;4123729;28;20088;-67
2021/08/26 10:07:34;;;;;;;2.50;1.40;;;21.40;90.80;;;;;;4122857;28;20112;-67
2021/08/26 10:09:39;;;;;;;2.50;1.45;;;21.60;91.00;;;;;;4124123;28;20035;-67
2021/08/26 10:11:41;;;;;;;2.28;1.30;;;21.70;90.70;;;;;;4122848;28;20038;-67
2021/08/26 10:13:42;;;;;;;3.03;1.50;;;21.60;91.00;;;;;;4124315;28;20485;-67
2021/08/26 10:15:43;;;;;;;5.68;1.30;;;21.30;90.90;;;;;;4122622;28;20482;-67
2021/08/26 10:17:44;;;;;;;3.63;1.80;;;21.10;91.10;;;;;;4124147;28;20038;-67
2021/08/26 10:19:48;;;;;;;2.28;1.38;;;20.90;91.30;;;;;;4122567;28;20557;-67
2021/08/26 10:21:49;;;;;;;2.25;1.27;;;20.80;91.40;;;;;;4124307;28;20054;-67
2021/08/26 10:23:50;;;;;;;1.95;1.20;;;20.80;91.50;;;;;;4122221;28;20026;-67
2021/08/26 10:25:54;;;;;;;2.45;1.98;;;20.80;91.50;;;;;;4123875;28;20039;-67
2021/08/26 10:27:57;;;;;;;1.92;1.33;;;20.90;91.20;;;;;;4122968;28;20042;-67
2021/08/26 10:29:59;;;;;;;3.45;1.50;;;20.90;91.40;;;;;;4123598;28;20449;-67
2021/08/26 10:32:03;;;;;;;3.60;1.48;;;20.80;91.20;;;;;;4136542;28;20042;-67
2021/08/26 10:34:23;;;;;;;2.83;1.90;;;20.90;91.10;;;;;;4123024;28;20388;-67
2021/08/26 10:36:29;;;;;;;;;;;20.80;90.90;;;;;;4121543;28;20050;-67
2021/08/26 10:38:33;;;;;;;2.42;1.33;;;20.90;90.50;;;;;;4123112;28;19910;-67
2021/08/26 10:40:39;;;;;;;3.85;1.40;;;21.00;91.10;;;;;;4123043;28;20030;-67
2021/08/26 10:42:41;;;;;;;2.95;1.40;;;21.00;91.00;;;;;;4122560;28;20566;-67
2021/08/26 10:45:01;;;;;;;2.80;1.63;;;21.00;91.30;;;;;;4123305;28;20038;-67